Flight Track Log - Related Links

Times and Time Zones

All times are in EDT time to prevent confusion due to time zone crossing. See the TFX155 flight status page for this flight to view local times or setup timezone preferences in your user account.

Time Position Orientation Groundspeed Altitude Reporting Facility
EDT Latitude Longitude Course Direction KTS MPH feet Rate Location/Type
Thu 08:58:16 AM -33.9558 150.9602 185° South 183 211 3,100  Level Aus ATC (RADAR)
Thu 08:58:51 AM -33.9827 150.9576 185° South 168 193 4,200 1,800 Climbing Aus ATC (RADAR)
Thu 08:59:26 AM -34.0066 150.9460 202° Southwest 158 182 5,200 1,629 Climbing Aus ATC (RADAR)
Thu 09:00:01 AM -34.0313 150.9348 201° Southwest 160 184 6,100 1,636 Climbing Aus ATC (RADAR)
Thu 09:01:05 AM -34.0740 150.9096 206° Southwest 152 175 7,900 1,488 Climbing Aus ATC (RADAR)
Thu 09:02:10 AM -34.1199 150.8876 202° Southwest 165 190 9,300 1,246 Climbing Aus ATC (RADAR)
Thu 09:03:15 AM -34.1697 150.8640 201° Southwest 179 206 10,600 1,246 Climbing Aus ATC (RADAR)
Thu 09:04:20 AM -34.2196 150.8404 201° Southwest 179 206 12,000 1,154 Climbing Aus ATC (RADAR)
Thu 09:05:25 AM -34.2714 150.8131 204° Southwest 190 219 13,100 969 Climbing Aus ATC (RADAR)
Thu 09:06:30 AM -34.3277 150.7843 203° Southwest 206 237 14,100 369 Climbing Aus ATC (RADAR)
Thu 09:07:35 AM -34.3727 150.7248 227° Southwest 223 257 13,900 -96 Descending Aus ATC (RADAR)
Thu 09:08:35 AM -34.4118 150.6579 235° Southwest 241 277 13,900  Level Aus ATC (RADAR)
Thu 09:09:35 AM -34.4526 150.5909 234° Southwest 240 276 13,900  Level Aus ATC (RADAR)
Thu 09:10:40 AM -34.4934 150.5190 235° Southwest 236 272 13,900  Level Aus ATC (RADAR)
Thu 09:11:49 AM -34.5397 150.4431 233° Southwest 237 273 13,900  Level Aus ATC (RADAR)
Thu 09:12:49 AM -34.5806 150.3812 231° Southwest 232 267 13,900  Level Aus ATC (RADAR)
Thu 09:13:54 AM -34.6206 150.3131 234° Southwest 224 258 13,900  Level Aus ATC (RADAR)
Thu 09:15:14 AM -34.6653 150.2306 237° Southwest 213 245 13,900  Level Aus ATC (RADAR)
Thu 09:16:04 AM -34.6952 150.1821 233° Southwest 212 244 13,900  Level Aus ATC (RADAR)
Thu 09:17:09 AM -34.7312 150.1187 235° Southwest 207 238 13,900  Level Aus ATC (RADAR)
Thu 09:18:19 AM -34.7733 150.0521 232° Southwest 210 242 13,900  Level Aus ATC (RADAR)
Thu 09:19:19 AM -34.8088 149.9943 233° Southwest 211 243 13,900  Level Aus ATC (RADAR)
Thu 09:20:24 AM -34.8465 149.9300 234° Southwest 213 245 13,900  Level Aus ATC (RADAR)
Thu 09:21:23 AM -34.8826 149.8709 233° Southwest 216 249 13,900  Level Aus ATC (RADAR)
Thu 09:22:28 AM -34.9219 149.8039 234° Southwest 222 255 13,900  Level Aus ATC (RADAR)
Thu 09:23:28 AM -34.9607 149.7431 232° Southwest 224 258 13,900  Level Aus ATC (RADAR)
Thu 09:24:38 AM -35.0038 149.6683 235° Southwest 228 262 13,900  Level Aus ATC (RADAR)
Thu 09:25:43 AM -35.0465 149.5988 233° Southwest 232 267 13,900  Level Aus ATC (RADAR)
Thu 09:26:48 AM -35.0887 149.5304 233° Southwest 230 265 13,900  Level Aus ATC (RADAR)
Thu 09:27:53 AM -35.1276 149.4615 235° Southwest 224 258 13,900  Level Aus ATC (RADAR)
Thu 09:28:58 AM -35.1685 149.3922 234° Southwest 229 264 13,900  Level Aus ATC (RADAR)
Thu 09:30:07 AM -35.2117 149.3183 234° Southwest 229 264 13,900  Level Aus ATC (RADAR)
Thu 09:31:12 AM -35.2531 149.2505 233° Southwest 226 260 13,900  Level Aus ATC (RADAR)
Thu 09:32:12 AM -35.2896 149.1888 234° Southwest 224 258 13,900  Level Aus ATC (RADAR)
Thu 09:33:22 AM -35.3376 149.1172 231° Southwest 231 266 13,900  Level Aus ATC (RADAR)
Thu 09:34:22 AM -35.3778 149.0550 232° Southwest 233 268 13,900  Level Aus ATC (RADAR)
Thu 09:35:27 AM -35.4207 148.9888 232° Southwest 225 259 13,900  Level Aus ATC (RADAR)
Thu 09:36:32 AM -35.4642 148.9226 231° Southwest 229 264 13,900  Level Aus ATC (RADAR)
Thu 09:37:37 AM -35.5089 148.8554 231° Southwest 230 265 13,900  Level Aus ATC (RADAR)
Thu 09:38:37 AM -35.5507 148.7948 230° Southwest 232 267 13,900  Level Aus ATC (RADAR)
Thu 09:39:46 AM -35.5970 148.7227 232° Southwest 230 265 13,900  Level Aus ATC (RADAR)
Thu 09:40:51 AM -35.6406 148.6543 232° Southwest 234 269 13,900  Level Aus ATC (RADAR)
Thu 09:41:51 AM -35.6816 148.5922 231° Southwest 231 266 13,900  Level Aus ATC (RADAR)
Thu 09:42:56 AM -35.7236 148.5248 232° Southwest 225 259 13,900  Level Aus ATC (RADAR)
Thu 09:44:01 AM -35.7672 148.4572 231° Southwest 231 266 13,900  Level Aus ATC (RADAR)
Thu 09:45:16 AM -35.8155 148.3769 233° Southwest 233 268 13,900  Level Aus ATC (RADAR)
Thu 09:46:11 AM -35.8473 148.3178 236° Southwest 222 255 13,900  Level Aus ATC (RADAR)
Thu 09:47:16 AM -35.8857 148.2529 234° Southwest 215 247 13,900 432 Level Aus ATC (RADAR)
Thu 09:48:16 AM -35.9227 148.1984 230° Southwest 197 227 14,800 977 Climbing Aus ATC (RADAR)
Thu 09:49:25 AM -35.9644 148.1574 219° Southwest 159 183 16,000 465 Climbing Aus ATC (RADAR)
Thu 09:50:25 AM -35.9933 148.1077 234° Southwest 178 205 15,800 -92 Descending Aus ATC (RADAR)
Thu 09:51:35 AM -36.0254 148.0417 239° Southwest 190 219 15,800  Level Aus ATC (RADAR)
Thu 09:52:35 AM -36.0546 147.9837 238° Southwest 203 234 15,800  Level Aus ATC (RADAR)
Thu 09:53:40 AM -36.0950 147.9240 230° Southwest 210 242 15,800  Level Aus ATC (RADAR)
Thu 09:54:45 AM -36.1344 147.8604 233° Southwest 211 243 15,800  Level Aus ATC (RADAR)
Thu 09:55:50 AM -36.1688 147.7963 236° Southwest 207 238 15,800  Level Aus ATC (RADAR)
Thu 09:56:55 AM -36.2053 147.7317 235° Southwest 214 246 15,800  Level Aus ATC (RADAR)
Thu 09:58:05 AM -36.2433 147.6620 236° Southwest 206 237 15,800  Level Aus ATC (RADAR)
Thu 09:59:05 AM -36.2761 147.6033 235° Southwest 206 237 15,800  Level Aus ATC (RADAR)
Thu 10:00:19 AM -36.3170 147.5308 235° Southwest 204 235 15,800  Level Aus ATC (RADAR)
Thu 10:01:14 AM -36.3452 147.4752 238° Southwest 208 239 15,800  Level Aus ATC (RADAR)
Thu 10:02:19 AM -36.3790 147.4061 239° Southwest 216 249 15,800  Level Aus ATC (RADAR)
Thu 10:03:19 AM -36.4173 147.3448 232° Southwest 222 255 15,800  Level Aus ATC (RADAR)
Thu 10:04:29 AM -36.4615 147.2755 232° Southwest 218 251 15,800  Level Aus ATC (RADAR)
Thu 10:05:29 AM -36.4917 147.2112 240° Southwest 218 251 15,800  Level Aus ATC (RADAR)
Thu 10:06:34 AM -36.5280 147.1442 236° Southwest 217 250 15,800  Level Aus ATC (RADAR)
Thu 10:07:39 AM -36.5663 147.0785 234° Southwest 216 249 15,800  Level Aus ATC (RADAR)
Thu 10:08:44 AM -36.5969 147.0097 241° Southwest 211 243 15,800 -48 Level Aus ATC (RADAR)
Thu 10:09:44 AM -36.6288 146.9509 236° Southwest 204 235 15,700 -532 Descending Aus ATC (RADAR)
Thu 10:10:48 AM -36.6640 146.8850 236° Southwest 208 239 14,700 -837 Descending Aus ATC (RADAR)
Thu 10:11:53 AM -36.6982 146.8222 236° Southwest 205 236 13,900 -923 Descending Aus ATC (RADAR)
Thu 10:12:58 AM -36.7336 146.7599 235° Southwest 204 235 12,700 -969 Descending Aus ATC (RADAR)
Thu 10:14:03 AM -36.7663 146.7040 234° Southwest 181 208 11,800 -1,015 Descending Aus ATC (RADAR)
Thu 10:15:08 AM -36.7941 146.6489 238° Southwest 175 201 10,500 -912 Descending Aus ATC (RADAR)
Thu 10:16:08 AM -36.8166 146.5946 243° Southwest 179 206 9,900 -277 Descending Aus ATC (RADAR)
Thu 10:17:18 AM -36.8436 146.5235 245° Southwest 196 226 9,900  Level Aus ATC (RADAR)
Thu 10:18:18 AM -36.8727 146.4614 240° Southwest 207 238 9,900 -89 Level Aus ATC (RADAR)
Thu 10:19:33 AM -36.9112 146.3834 238° Southwest 210 242 9,700 -96 Descending Aus ATC (RADAR)
Thu 10:20:23 AM -36.9374 146.3329 237° Southwest 206 237 9,700  Level Aus ATC (RADAR)
Thu 10:21:27 AM -36.9723 146.2686 236° Southwest 206 237 9,700  Level Aus ATC (RADAR)
Thu 10:22:32 AM -37.0072 146.2024 236° Southwest 211 243 9,700  Level Aus ATC (RADAR)
Thu 10:23:37 AM -37.0439 146.1362 235° Southwest 214 246 9,700  Level Aus ATC (RADAR)
Thu 10:24:42 AM -37.0807 146.0697 235° Southwest 217 250 9,700 46 Level Aus ATC (RADAR)
Thu 10:25:47 AM -37.1159 145.9995 238° Southwest 222 255 9,800 46 Climbing Aus ATC (RADAR)
Thu 10:26:52 AM -37.1545 145.9296 235° Southwest 226 260 9,800  Level Aus ATC (RADAR)
Thu 10:27:52 AM -37.1912 145.8654 234° Southwest 226 260 9,800 -46 Level Aus ATC (RADAR)
Thu 10:29:02 AM -37.2307 145.7903 237° Southwest 219 252 9,700 -45 Descending Aus ATC (RADAR)
Thu 10:30:06 AM -37.2702 145.7226 234° Southwest 222 255 9,700  Level Aus ATC (RADAR)
Thu 10:31:16 AM -37.3109 145.6473 236° Southwest 223 257 9,700  Level Aus ATC (RADAR)
Thu 10:32:21 AM -37.3502 145.5787 234° Southwest 223 257 9,700  Level Aus ATC (RADAR)
Thu 10:33:26 AM -37.3901 145.5089 234° Southwest 228 262 9,700 144 Level Aus ATC (RADAR)
Thu 10:34:26 AM -37.4287 145.4472 232° Southwest 224 258 10,000 -46 Climbing Aus ATC (RADAR)
Thu 10:35:36 AM -37.4799 145.3802 226° Southwest 231 266 9,600 -738 Descending Aus ATC (RADAR)
Thu 10:36:36 AM -37.5315 145.3282 219° Southwest 236 272 8,400 -1,108 Descending Aus ATC (RADAR)
Thu 10:37:46 AM -37.5903 145.2775 214° Southwest 216 249 7,200 -1,200 Descending Aus ATC (RADAR)
Thu 10:38:46 AM -37.6364 145.2297 219° Southwest 216 249 5,800 -1,296 Descending Aus ATC (RADAR)
Thu 10:39:51 AM -37.6868 145.1784 219° Southwest 215 247 4,500 -1,016 Descending Aus ATC (RADAR)
Thu 10:40:50 AM -37.7241 145.1306 225° Southwest 189 217 3,700 -677 Descending Aus ATC (RADAR)
Thu 10:41:55 AM -37.7530 145.0733 237° Southwest 176 203 3,100 -231 Descending Aus ATC (RADAR)
Thu 10:43:00 AM -37.7824 145.0173 236° Southwest 177 204 3,200 46 Climbing Aus ATC (RADAR)
Thu 10:44:05 AM -37.8108 144.9612 237° Southwest 168 193 3,200 -48 Level Aus ATC (RADAR)
Thu 10:45:05 AM -37.8327 144.9137 240° Southwest 157 181 3,100  Descending Aus ATC (RADAR)
Thu 10:46:15 AM -37.8182 144.8736 295° West 146 168 3,200 -257 Climbing Aus ATC (RADAR)
Thu 10:47:25 AM -37.7792 144.8604 345° North 119 137 2,500 -692 Descending Aus ATC (RADAR)
Thu 10:48:25 AM -37.7472 144.8533 350° North 116 133 1,700 -720 Descending Aus ATC (RADAR)
Thu 10:49:30 AM -37.7108 144.8462 351° North 129 148 1,000 -651 Descending Aus ATC (RADAR)
Thu 10:50:34 AM -37.6754 144.8393 351° North 116 133 300 -656 Descending Aus ATC (RADAR)

Login

Don't have an account? Register now (free) for customized features, flight alerts, and more!